createdAt,value
2023-05-04T00:02:01.052Z,0.20
2023-05-04T00:07:02.439Z,0.30
2023-05-04T00:12:03.967Z,0.30
2023-05-04T00:17:06.568Z,0.28
2023-05-04T00:22:08.010Z,0.30
2023-05-04T00:27:10.460Z,0.22
2023-05-04T00:32:11.829Z,0.30
2023-05-04T00:37:13.210Z,0.30
2023-05-04T00:42:14.647Z,0.30
2023-05-04T00:47:16.792Z,0.20
2023-05-04T00:52:19.459Z,0.25
2023-05-04T00:57:20.835Z,0.20
2023-05-04T01:02:22.228Z,0.22
2023-05-04T01:07:29.893Z,0.30
2023-05-04T01:12:35.268Z,0.20
2023-05-04T01:17:36.811Z,0.30
2023-05-04T01:22:38.326Z,0.20
2023-05-04T01:27:56.492Z,0.30
2023-05-04T01:32:57.916Z,0.30
2023-05-04T01:37:59.449Z,0.20
2023-05-04T01:43:00.829Z,0.17
2023-05-04T01:48:02.228Z,0.20
2023-05-04T01:53:03.674Z,0.28
2023-05-04T01:58:05.060Z,0.20
2023-05-04T02:03:06.495Z,0.30
2023-05-04T02:08:07.953Z,0.30
2023-05-04T02:13:09.396Z,0.28
2023-05-04T02:18:10.923Z,0.40
2023-05-04T02:23:12.453Z,0.20
2023-05-04T02:28:13.873Z,0.30
2023-05-04T02:33:15.321Z,0.40
2023-05-04T02:38:16.703Z,0.40
2023-05-04T02:43:18.220Z,0.20
2023-05-04T02:48:19.632Z,0.30
2023-05-04T02:53:21.056Z,0.25
2023-05-04T02:58:22.444Z,0.20
2023-05-04T03:03:23.833Z,0.30
2023-05-04T03:08:25.346Z,0.40
2023-05-04T03:13:26.772Z,0.30
2023-05-04T03:18:28.160Z,0.47
2023-05-04T03:23:29.557Z,0.50
2023-05-04T03:28:31.346Z,0.60
2023-05-04T03:33:32.718Z,0.30
2023-05-04T03:38:34.233Z,0.30
2023-05-04T03:43:35.604Z,0.40
2023-05-04T03:48:36.986Z,0.30
2023-05-04T03:53:38.378Z,0.40
2023-05-04T03:58:39.752Z,0.30
2023-05-04T04:03:41.277Z,0.20
2023-05-04T04:08:42.768Z,0.35
2023-05-04T04:13:44.147Z,0.38
2023-05-04T04:18:46.280Z,0.38
2023-05-04T04:23:47.706Z,0.28
2023-05-04T04:28:50.790Z,0.30
2023-05-04T04:33:52.552Z,0.40
2023-05-04T04:38:53.964Z,0.38
2023-05-04T04:43:55.362Z,0.40
2023-05-04T04:48:57.019Z,0.30
2023-05-04T04:53:58.852Z,0.30
2023-05-04T04:59:00.279Z,0.40
2023-05-04T05:04:01.654Z,0.40
2023-05-04T05:09:03.161Z,0.20
2023-05-04T05:14:04.642Z,0.35
2023-05-04T05:19:06.055Z,0.30
2023-05-04T05:24:07.510Z,0.30
2023-05-04T05:29:09.410Z,0.30
2023-05-04T05:34:10.789Z,0.30
2023-05-04T05:39:12.197Z,0.30
2023-05-04T05:44:13.566Z,0.30
2023-05-04T05:49:14.940Z,0.30
2023-05-04T05:54:16.446Z,0.28
2023-05-04T05:59:17.823Z,0.40
2023-05-04T06:04:19.268Z,0.30
2023-05-04T06:09:21.007Z,0.30
2023-05-04T06:14:22.471Z,0.40
2023-05-04T06:19:23.872Z,0.30
2023-05-04T06:24:26.830Z,0.90
2023-05-04T06:29:28.318Z,0.40
2023-05-04T06:34:29.698Z,0.60
2023-05-04T06:39:31.319Z,0.57
2023-05-04T06:44:35.902Z,0.52
2023-05-04T06:49:37.379Z,0.50
2023-05-04T06:54:40.227Z,0.40
2023-05-04T06:59:42.017Z,0.50
2023-05-04T07:04:43.785Z,0.50
2023-05-04T07:09:47.737Z,0.50
2023-05-04T07:14:49.119Z,0.40
2023-05-04T07:19:52.455Z,0.63
2023-05-04T07:24:53.884Z,0.40
2023-05-04T07:29:55.672Z,0.88
2023-05-04T07:34:57.364Z,1.10
2023-05-04T07:40:00.279Z,0.60
2023-05-04T07:45:01.667Z,0.70
2023-05-04T07:50:04.318Z,0.50
2023-05-04T07:55:06.713Z,0.70
2023-05-04T08:00:09.592Z,0.80
2023-05-04T08:05:11.690Z,0.90
2023-05-04T08:10:13.140Z,0.40
2023-05-04T08:15:14.821Z,0.40
2023-05-04T08:20:16.781Z,0.50
2023-05-04T08:25:18.180Z,0.40
2023-05-04T08:30:19.625Z,0.38
2023-05-04T08:35:23.485Z,0.40
2023-05-04T08:40:24.959Z,0.30
2023-05-04T08:45:26.606Z,0.25
2023-05-04T08:50:27.978Z,0.32
2023-05-04T08:55:30.649Z,0.38
2023-05-04T09:00:32.971Z,0.40
2023-05-04T09:05:34.536Z,0.35
2023-05-04T09:10:36.868Z,0.40
2023-05-04T09:15:38.237Z,0.40
2023-05-04T09:20:43.315Z,0.30
2023-05-04T09:25:51.724Z,0.23
2023-05-04T09:30:59.621Z,0.30
2023-05-04T09:36:14.109Z,0.30
2023-05-04T09:41:15.507Z,0.20
2023-05-04T09:46:18.068Z,0.38
2023-05-04T09:51:23.101Z,0.68
2023-05-04T09:56:32.851Z,0.47
2023-05-04T10:01:34.313Z,0.43
2023-05-04T10:06:35.981Z,0.65
2023-05-04T10:11:37.390Z,0.50
2023-05-04T10:16:47.508Z,0.40
2023-05-04T10:22:04.310Z,0.30
2023-05-04T10:27:43.131Z,0.40
2023-05-04T10:32:44.562Z,0.40
2023-05-04T10:37:54.223Z,0.30
2023-05-04T10:42:55.756Z,0.40
2023-05-04T10:47:57.460Z,0.30
2023-05-04T10:53:00.010Z,0.30
2023-05-04T10:58:01.523Z,0.30
2023-05-04T11:03:03.538Z,0.40
2023-05-04T11:08:26.874Z,0.43
2023-05-04T11:13:31.862Z,0.22
2023-05-04T11:18:34.187Z,0.20
2023-05-04T11:23:35.631Z,0.40
2023-05-04T11:28:37.394Z,0.40
2023-05-04T11:33:38.833Z,0.52
2023-05-04T11:38:40.217Z,0.30
2023-05-04T11:43:42.640Z,0.30
2023-05-04T11:48:44.121Z,0.30
2023-05-04T11:53:45.551Z,0.40
2023-05-04T11:58:46.947Z,0.60
2023-05-04T12:03:53.778Z,0.50
2023-05-04T12:09:09.593Z,0.88
2023-05-04T12:14:13.605Z,0.52
2023-05-04T12:19:15.004Z,1.10
2023-05-04T12:24:16.439Z,2.47
2023-05-04T12:29:17.841Z,1.73
2023-05-04T12:34:19.259Z,1.38
2023-05-04T12:39:20.911Z,1.00
2023-05-04T12:44:22.340Z,0.65
2023-05-04T12:49:24.848Z,0.65
2023-05-04T12:54:26.579Z,1.00
2023-05-04T12:59:28.222Z,1.05
2023-05-04T13:04:29.602Z,0.80
2023-05-04T13:09:31.054Z,0.90
2023-05-04T13:19:40.427Z,0.63
2023-05-04T13:24:41.816Z,0.60
2023-05-04T13:29:44.111Z,0.40
2023-05-04T13:34:46.309Z,0.50
2023-05-04T13:39:47.753Z,0.30
2023-05-04T13:44:49.139Z,0.40
2023-05-04T13:49:50.830Z,0.30
2023-05-04T13:54:52.398Z,0.30
2023-05-04T14:00:05.773Z,0.22
2023-05-04T14:05:08.972Z,0.20
2023-05-04T14:10:10.712Z,0.40
2023-05-04T14:15:12.154Z,0.20
2023-05-04T14:20:13.766Z,0.25
2023-05-04T14:25:15.620Z,0.43
2023-05-04T14:30:17.057Z,0.30
2023-05-04T14:35:18.484Z,0.20
2023-05-04T14:40:19.940Z,0.30
2023-05-04T14:45:21.462Z,0.30
2023-05-04T14:50:22.848Z,0.20
2023-05-04T14:55:24.218Z,0.20
2023-05-04T15:00:25.788Z,0.20
2023-05-04T15:05:27.183Z,0.32
2023-05-04T15:10:28.679Z,0.30
2023-05-04T15:15:30.055Z,0.30
2023-05-04T15:20:31.421Z,0.20
2023-05-04T15:25:32.793Z,0.20
2023-05-04T15:30:34.174Z,0.30
2023-05-04T15:35:36.091Z,0.20
2023-05-04T15:40:37.533Z,0.20
2023-05-04T15:45:38.915Z,0.22
2023-05-04T15:50:40.383Z,0.30
2023-05-04T15:55:41.795Z,0.20
2023-05-04T16:00:43.174Z,0.30
2023-05-04T16:05:44.564Z,0.10
2023-05-04T16:10:46.417Z,0.30
2023-05-04T16:15:51.263Z,0.20
2023-05-04T16:20:54.482Z,0.30
2023-05-04T16:25:56.046Z,0.10
2023-05-04T16:30:57.778Z,0.30
2023-05-04T16:35:59.751Z,0.30
2023-05-04T16:41:01.252Z,0.30
2023-05-04T16:46:02.819Z,0.30
2023-05-04T16:51:05.137Z,0.28
2023-05-04T16:56:07.329Z,0.20
2023-05-04T17:01:10.461Z,0.30
2023-05-04T17:06:12.728Z,0.10
2023-05-04T17:11:14.110Z,0.10
2023-05-04T17:16:15.563Z,0.10
2023-05-04T17:21:17.207Z,0.30
2023-05-04T17:26:18.578Z,0.30
2023-05-04T17:31:19.989Z,0.30
2023-05-04T17:36:21.410Z,0.30
2023-05-04T17:41:24.655Z,0.20
2023-05-04T17:46:26.236Z,0.35
2023-05-04T17:51:27.786Z,0.20
2023-05-04T17:56:29.178Z,0.20
2023-05-04T18:01:30.672Z,0.32
2023-05-04T18:06:32.409Z,0.20
2023-05-04T18:11:33.842Z,0.20
2023-05-04T18:16:37.465Z,0.20
2023-05-04T18:21:38.980Z,0.30
2023-05-04T18:26:40.347Z,0.20
2023-05-04T18:31:41.764Z,0.20
2023-05-04T18:36:43.227Z,0.20
2023-05-04T18:41:44.619Z,0.30
2023-05-04T18:46:46.198Z,0.32
2023-05-04T18:51:47.586Z,0.30
2023-05-04T18:56:48.982Z,0.30
2023-05-04T19:01:50.359Z,0.20
2023-05-04T19:06:53.525Z,0.30
2023-05-04T19:11:54.908Z,0.30
2023-05-04T19:16:57.340Z,0.30
2023-05-04T19:21:58.719Z,0.30
2023-05-04T19:27:00.513Z,0.38
2023-05-04T19:32:12.014Z,0.40
2023-05-04T19:37:21.819Z,0.35
2023-05-04T19:42:23.199Z,0.40
2023-05-04T19:47:24.961Z,0.20
2023-05-04T19:52:26.375Z,0.40
2023-05-04T19:57:28.251Z,0.55
2023-05-04T20:02:29.748Z,0.32
2023-05-04T20:07:31.221Z,0.28
2023-05-04T20:12:34.000Z,0.30
2023-05-04T20:17:35.432Z,0.30
2023-05-04T20:22:38.170Z,0.30
2023-05-04T20:27:39.607Z,0.30
2023-05-04T20:32:41.030Z,0.30
2023-05-04T20:37:42.453Z,0.40
2023-05-04T20:42:44.084Z,0.40
2023-05-04T20:47:45.493Z,0.30
2023-05-04T20:52:47.153Z,0.30
2023-05-04T20:57:49.533Z,0.20
2023-05-04T21:02:51.100Z,0.30
2023-05-04T21:07:52.669Z,0.40
2023-05-04T21:12:54.156Z,0.22
2023-05-04T21:17:55.656Z,0.32
2023-05-04T21:22:57.455Z,0.30
2023-05-04T21:27:58.840Z,0.50
2023-05-04T21:33:00.619Z,0.25
2023-05-04T21:38:02.203Z,0.28
2023-05-04T21:43:03.606Z,0.40
2023-05-04T21:48:05.883Z,0.45
2023-05-04T21:53:07.288Z,0.40
2023-05-04T21:58:08.697Z,0.20
2023-05-04T22:03:11.154Z,0.30
2023-05-04T22:08:12.524Z,0.30
2023-05-04T22:13:14.021Z,0.40
2023-05-04T22:18:15.716Z,0.40
2023-05-04T22:23:17.120Z,0.32
2023-05-04T22:28:18.495Z,0.30
2023-05-04T22:33:19.862Z,0.30
2023-05-04T22:38:21.526Z,0.50
2023-05-04T22:43:22.923Z,0.50
2023-05-04T22:48:24.318Z,0.40
2023-05-04T22:53:25.694Z,0.40
2023-05-04T22:58:27.186Z,0.30
2023-05-04T23:03:28.704Z,0.43
2023-05-04T23:08:30.119Z,0.40
2023-05-04T23:13:31.496Z,0.30
2023-05-04T23:18:32.950Z,0.40
2023-05-04T23:23:34.512Z,0.30
2023-05-04T23:28:35.924Z,0.50
2023-05-04T23:33:37.362Z,0.32
2023-05-04T23:38:38.799Z,0.30
2023-05-04T23:43:40.202Z,0.50
2023-05-04T23:48:41.646Z,0.32
2023-05-04T23:53:43.031Z,0.30
2023-05-04T23:58:44.408Z,0.38
